CFG7MA LIEO-EDDM
Flight info
| Callsign | CFG7MA |
|---|---|
| Flight time | 1h 10m |
| Altitude | 36000 |
| Route | BATOX DCT DEDOM DCT ELB DCT BETMU DCT ADOSA DCT GUNGO DCT SOTOV/N0407F240 T101 BETOS BETOS1A |
| Aircraft | A320/M-SDE3FGHIJ1LORVWXYZ/S |
Departure
| Time | 2026-05-08 17:54 |
|---|---|
| Airport | Olbia Costa Smeralda Airport (LIEO) |
Arrival
| Time | 2026-05-08 19:05 |
|---|---|
| Airport | Munich Airport (EDDM) |
| Time | Latitude | Longitude | Altitude | Speed | Heading |
|---|---|---|---|---|---|
| 2026-05-08 17:29 | 40.90204 | 9.51571 | 34 ft | 0 kts | 325° |
| 2026-05-08 17:48 | 40.90193 | 9.51580 | 34 ft | 4 kts | 322° |
| 2026-05-08 17:48 | 40.90174 | 9.51604 | 34 ft | 4 kts | 307° |
| 2026-05-08 17:48 | 40.90162 | 9.51634 | 33 ft | 4 kts | 270° |
| 2026-05-08 17:48 | 40.90165 | 9.51654 | 32 ft | 1 kts | 235° |
| 2026-05-08 17:49 | 40.90167 | 9.51657 | 32 ft | 0 kts | 235° |
| 2026-05-08 17:51 | 40.90152 | 9.51628 | 32 ft | 14 kts | 235° |
| 2026-05-08 17:51 | 40.90086 | 9.51503 | 34 ft | 11 kts | 236° |
| 2026-05-08 17:51 | 40.90031 | 9.51486 | 33 ft | 11 kts | 152° |
| 2026-05-08 17:51 | 40.89952 | 9.51506 | 34 ft | 14 kts | 199° |
| 2026-05-08 17:52 | 40.89885 | 9.51402 | 34 ft | 18 kts | 233° |
| 2026-05-08 17:52 | 40.89784 | 9.51218 | 34 ft | 31 kts | 234° |
| 2026-05-08 17:52 | 40.89495 | 9.50664 | 34 ft | 38 kts | 234° |
| 2026-05-08 17:53 | 40.89366 | 9.50446 | 34 ft | 17 kts | 203° |
| 2026-05-08 17:53 | 40.89260 | 9.50478 | 34 ft | 13 kts | 112° |
| 2026-05-08 17:53 | 40.89263 | 9.50605 | 34 ft | 14 kts | 84° |
| 2026-05-08 17:53 | 40.89320 | 9.50714 | 34 ft | 18 kts | 58° |
| 2026-05-08 17:54 | 40.89528 | 9.51128 | 33 ft | 97 kts | 57° |
| 2026-05-08 17:54 | 40.90060 | 9.52135 | 35 ft | 166 kts | 56° |
| 2026-05-08 17:54 | 40.90789 | 9.53439 | 591 ft | 183 kts | 52° |
| 2026-05-08 17:54 | 40.91521 | 9.54765 | 1571 ft | 179 kts | 54° |
| 2026-05-08 17:55 | 40.92259 | 9.56176 | 2379 ft | 194 kts | 54° |
| 2026-05-08 17:55 | 40.93061 | 9.57721 | 2767 ft | 216 kts | 54° |
| 2026-05-08 17:55 | 40.93954 | 9.59434 | 3176 ft | 234 kts | 54° |
| 2026-05-08 17:55 | 40.94901 | 9.61236 | 3905 ft | 240 kts | 54° |
| 2026-05-08 17:56 | 40.95848 | 9.63033 | 4740 ft | 242 kts | 54° |
| 2026-05-08 17:56 | 40.96822 | 9.64876 | 5559 ft | 246 kts | 54° |
| 2026-05-08 17:56 | 40.97812 | 9.66743 | 6361 ft | 249 kts | 54° |
| 2026-05-08 17:56 | 40.98814 | 9.68642 | 7096 ft | 255 kts | 55° |
| 2026-05-08 17:57 | 40.99836 | 9.70690 | 7524 ft | 275 kts | 56° |
| 2026-05-08 17:57 | 41.00876 | 9.72853 | 8228 ft | 281 kts | 57° |
| 2026-05-08 17:57 | 41.01928 | 9.75065 | 9007 ft | 286 kts | 57° |
| 2026-05-08 17:57 | 41.02995 | 9.77314 | 9788 ft | 291 kts | 57° |
| 2026-05-08 17:58 | 41.04102 | 9.79589 | 10367 ft | 302 kts | 52° |
| 2026-05-08 17:58 | 41.05705 | 9.81493 | 10566 ft | 322 kts | 27° |
| 2026-05-08 17:58 | 41.07880 | 9.82511 | 10769 ft | 342 kts | 13° |
| 2026-05-08 17:58 | 41.10220 | 9.83304 | 11277 ft | 351 kts | 12° |
| 2026-05-08 17:59 | 41.12613 | 9.84090 | 11917 ft | 357 kts | 11° |
| 2026-05-08 17:59 | 41.15075 | 9.84894 | 12183 ft | 375 kts | 12° |
| 2026-05-08 17:59 | 41.17676 | 9.85747 | 12317 ft | 394 kts | 12° |
| 2026-05-08 17:59 | 41.20387 | 9.86648 | 12600 ft | 407 kts | 12° |
| 2026-05-08 18:00 | 41.23155 | 9.87582 | 13125 ft | 412 kts | 12° |
| 2026-05-08 18:00 | 41.28735 | 9.89487 | 14214 ft | 421 kts | 11° |
| 2026-05-08 18:00 | 41.31615 | 9.90470 | 14731 ft | 424 kts | 11° |
| 2026-05-08 18:01 | 41.34444 | 9.91435 | 15229 ft | 427 kts | 11° |
| 2026-05-08 18:01 | 41.37331 | 9.92416 | 15751 ft | 429 kts | 11° |
| 2026-05-08 18:01 | 41.40276 | 9.93415 | 16239 ft | 432 kts | 11° |
| 2026-05-08 18:01 | 41.43161 | 9.94394 | 16691 ft | 436 kts | 11° |
| 2026-05-08 18:02 | 41.46151 | 9.95412 | 17141 ft | 439 kts | 10° |
| 2026-05-08 18:02 | 41.48112 | 9.96081 | 17427 ft | 441 kts | 10° |
| 2026-05-08 18:02 | 41.52072 | 9.97433 | 17987 ft | 446 kts | 10° |
| 2026-05-08 18:02 | 41.55090 | 9.98465 | 18394 ft | 449 kts | 10° |
| 2026-05-08 18:03 | 41.58129 | 9.99503 | 18718 ft | 453 kts | 11° |
| 2026-05-08 18:03 | 41.61192 | 10.00549 | 19044 ft | 456 kts | 11° |
| 2026-05-08 18:03 | 41.64277 | 10.01606 | 19395 ft | 458 kts | 11° |
| 2026-05-08 18:03 | 41.67374 | 10.02667 | 19734 ft | 460 kts | 11° |
| 2026-05-08 18:04 | 41.70480 | 10.03732 | 20065 ft | 463 kts | 11° |
| 2026-05-08 18:04 | 41.73605 | 10.04807 | 20386 ft | 465 kts | 11° |
| 2026-05-08 18:04 | 41.76747 | 10.05889 | 20711 ft | 466 kts | 11° |
| 2026-05-08 18:04 | 41.79893 | 10.06973 | 21040 ft | 468 kts | 11° |
| 2026-05-08 18:05 | 41.83050 | 10.08061 | 21340 ft | 469 kts | 11° |
| 2026-05-08 18:05 | 41.86223 | 10.09153 | 21630 ft | 471 kts | 11° |
| 2026-05-08 18:05 | 41.89405 | 10.10250 | 21914 ft | 473 kts | 11° |
| 2026-05-08 18:05 | 41.92604 | 10.11355 | 22190 ft | 475 kts | 11° |
| 2026-05-08 18:06 | 41.95814 | 10.12465 | 22459 ft | 477 kts | 11° |
| 2026-05-08 18:06 | 41.99029 | 10.13580 | 22768 ft | 478 kts | 11° |
| 2026-05-08 18:06 | 42.02253 | 10.14703 | 23027 ft | 479 kts | 11° |
| 2026-05-08 18:06 | 42.05489 | 10.15831 | 23268 ft | 481 kts | 11° |
| 2026-05-08 18:07 | 42.08737 | 10.16962 | 23501 ft | 483 kts | 11° |
| 2026-05-08 18:07 | 42.11994 | 10.18097 | 23695 ft | 484 kts | 11° |
| 2026-05-08 18:07 | 42.15255 | 10.19234 | 23875 ft | 486 kts | 11° |
| 2026-05-08 18:07 | 42.18532 | 10.20375 | 24085 ft | 486 kts | 11° |
| 2026-05-08 18:08 | 42.21803 | 10.21514 | 24329 ft | 486 kts | 11° |
| 2026-05-08 18:08 | 42.25078 | 10.22658 | 24580 ft | 486 kts | 11° |
| 2026-05-08 18:08 | 42.28304 | 10.23789 | 24835 ft | 485 kts | 11° |
| 2026-05-08 18:08 | 42.31612 | 10.24947 | 25095 ft | 485 kts | 11° |
| 2026-05-08 18:09 | 42.34836 | 10.26079 | 25357 ft | 484 kts | 11° |
| 2026-05-08 18:09 | 42.38093 | 10.27223 | 25629 ft | 484 kts | 10° |
| 2026-05-08 18:09 | 42.41351 | 10.28365 | 25903 ft | 483 kts | 10° |
| 2026-05-08 18:09 | 42.44608 | 10.29506 | 26183 ft | 483 kts | 10° |
| 2026-05-08 18:10 | 42.47853 | 10.30646 | 26465 ft | 482 kts | 10° |
| 2026-05-08 18:10 | 42.51108 | 10.31792 | 26755 ft | 482 kts | 10° |
| 2026-05-08 18:10 | 42.54354 | 10.32936 | 27047 ft | 481 kts | 10° |
| 2026-05-08 18:10 | 42.57596 | 10.34079 | 27356 ft | 481 kts | 10° |
| 2026-05-08 18:11 | 42.60827 | 10.35224 | 27678 ft | 480 kts | 10° |
| 2026-05-08 18:11 | 42.64058 | 10.36373 | 27985 ft | 479 kts | 10° |
| 2026-05-08 18:11 | 42.67284 | 10.37521 | 28295 ft | 479 kts | 10° |
| 2026-05-08 18:11 | 42.70505 | 10.38665 | 28612 ft | 478 kts | 10° |
| 2026-05-08 18:12 | 42.73741 | 10.39715 | 28926 ft | 475 kts | 5° |
| 2026-05-08 18:12 | 42.76992 | 10.40412 | 29280 ft | 473 kts | 4° |
| 2026-05-08 18:12 | 42.80240 | 10.41098 | 29630 ft | 471 kts | 4° |
| 2026-05-08 18:12 | 42.83480 | 10.41785 | 29971 ft | 470 kts | 4° |
| 2026-05-08 18:13 | 42.86708 | 10.42473 | 30258 ft | 470 kts | 4° |
| 2026-05-08 18:13 | 42.89941 | 10.43165 | 30532 ft | 469 kts | 4° |
| 2026-05-08 18:13 | 42.93162 | 10.43854 | 30809 ft | 469 kts | 4° |
| 2026-05-08 18:13 | 42.96338 | 10.44534 | 31090 ft | 468 kts | 4° |
| 2026-05-08 18:14 | 42.99555 | 10.45227 | 31399 ft | 466 kts | 4° |
| 2026-05-08 18:14 | 43.02750 | 10.45917 | 31684 ft | 466 kts | 3° |
| 2026-05-08 18:14 | 43.05953 | 10.46607 | 31959 ft | 465 kts | 3° |
| 2026-05-08 18:14 | 43.09150 | 10.47293 | 32233 ft | 465 kts | 3° |
| 2026-05-08 18:15 | 43.12342 | 10.47977 | 32499 ft | 464 kts | 3° |
| 2026-05-08 18:15 | 43.15531 | 10.48660 | 32790 ft | 464 kts | 3° |
| 2026-05-08 18:15 | 43.18719 | 10.49345 | 33109 ft | 462 kts | 2° |
| 2026-05-08 18:15 | 43.21899 | 10.50031 | 33398 ft | 461 kts | 2° |
| 2026-05-08 18:16 | 43.25074 | 10.50717 | 33675 ft | 461 kts | 2° |
| 2026-05-08 18:16 | 43.28235 | 10.51402 | 33925 ft | 461 kts | 2° |
| 2026-05-08 18:16 | 43.34580 | 10.52782 | 34025 ft | 461 kts | 2° |
| 2026-05-08 18:17 | 43.40885 | 10.54159 | 34008 ft | 458 kts | 2° |
| 2026-05-08 18:17 | 43.47170 | 10.55517 | 34006 ft | 457 kts | 2° |
| 2026-05-08 18:18 | 43.53418 | 10.56876 | 34008 ft | 457 kts | 2° |
| 2026-05-08 18:18 | 43.59680 | 10.58245 | 34030 ft | 454 kts | 2° |
| 2026-05-08 18:19 | 43.65902 | 10.59602 | 34029 ft | 453 kts | 2° |
| 2026-05-08 18:19 | 43.72123 | 10.60972 | 34019 ft | 453 kts | 2° |
| 2026-05-08 18:20 | 43.78341 | 10.62348 | 34021 ft | 452 kts | 1° |
| 2026-05-08 18:20 | 43.84554 | 10.63706 | 34030 ft | 452 kts | 1° |
| 2026-05-08 18:21 | 43.90764 | 10.65079 | 34031 ft | 452 kts | 2° |
| 2026-05-08 18:21 | 43.96972 | 10.66463 | 34031 ft | 451 kts | 1° |
| 2026-05-08 18:22 | 44.03166 | 10.67835 | 34034 ft | 451 kts | 1° |
| 2026-05-08 18:22 | 44.09359 | 10.69199 | 34029 ft | 450 kts | 1° |
| 2026-05-08 18:23 | 44.14503 | 10.70343 | 34042 ft | 449 kts | 1° |
| 2026-05-08 18:23 | 44.21666 | 10.71949 | 34051 ft | 449 kts | 1° |
| 2026-05-08 18:24 | 44.27828 | 10.73334 | 34046 ft | 449 kts | 1° |
| 2026-05-08 18:24 | 44.32997 | 10.74492 | 34046 ft | 449 kts | 1° |
| 2026-05-08 18:25 | 44.39158 | 10.75863 | 34048 ft | 449 kts | 1° |
| 2026-05-08 18:25 | 44.45327 | 10.77246 | 34049 ft | 449 kts | 1° |
| 2026-05-08 18:26 | 44.51486 | 10.78633 | 34044 ft | 447 kts | 1° |
| 2026-05-08 18:26 | 44.57630 | 10.80024 | 34045 ft | 451 kts | 1° |
| 2026-05-08 18:27 | 44.62798 | 10.81199 | 34045 ft | 455 kts | 1° |
| 2026-05-08 18:27 | 44.70074 | 10.82837 | 34047 ft | 454 kts | 1° |
| 2026-05-08 18:28 | 44.76311 | 10.84132 | 34047 ft | 452 kts | 0° |
| 2026-05-08 18:28 | 44.82585 | 10.85395 | 34047 ft | 452 kts | 0° |
| 2026-05-08 18:29 | 44.88820 | 10.86674 | 34065 ft | 453 kts | 1° |
| 2026-05-08 18:29 | 44.95059 | 10.87976 | 34055 ft | 453 kts | 1° |
| 2026-05-08 18:30 | 45.01301 | 10.89284 | 34059 ft | 453 kts | 1° |
| 2026-05-08 18:30 | 45.07545 | 10.90598 | 34084 ft | 454 kts | 1° |
| 2026-05-08 18:31 | 45.13797 | 10.91900 | 34061 ft | 454 kts | 1° |
| 2026-05-08 18:31 | 45.20015 | 10.93207 | 34051 ft | 455 kts | 1° |
| 2026-05-08 18:32 | 45.26317 | 10.94536 | 34071 ft | 455 kts | 2° |
| 2026-05-08 18:32 | 45.32559 | 10.95839 | 34058 ft | 456 kts | 2° |
| 2026-05-08 18:33 | 45.38844 | 10.97170 | 34052 ft | 457 kts | 2° |
| 2026-05-08 18:33 | 45.45142 | 10.98516 | 34077 ft | 457 kts | 3° |
| 2026-05-08 18:34 | 45.51442 | 10.99859 | 34051 ft | 457 kts | 3° |
| 2026-05-08 18:34 | 45.57750 | 11.01203 | 34052 ft | 459 kts | 3° |
| 2026-05-08 18:35 | 45.64064 | 11.02524 | 34075 ft | 457 kts | 0° |
| 2026-05-08 18:35 | 45.70380 | 11.02932 | 34054 ft | 455 kts | 357° |
| 2026-05-08 18:36 | 45.76696 | 11.03237 | 34066 ft | 454 kts | 356° |
| 2026-05-08 18:36 | 45.83008 | 11.03547 | 34072 ft | 454 kts | 356° |
| 2026-05-08 18:37 | 45.89324 | 11.03857 | 34084 ft | 454 kts | 357° |
| 2026-05-08 18:37 | 45.95640 | 11.04167 | 34072 ft | 455 kts | 357° |
| 2026-05-08 18:38 | 46.01958 | 11.04483 | 34096 ft | 455 kts | 357° |
| 2026-05-08 18:38 | 46.08299 | 11.04797 | 34109 ft | 456 kts | 357° |
| 2026-05-08 18:39 | 46.14658 | 11.05119 | 34114 ft | 456 kts | 357° |
| 2026-05-08 18:39 | 46.20996 | 11.05441 | 34149 ft | 457 kts | 357° |
| 2026-05-08 18:40 | 46.27355 | 11.05758 | 34155 ft | 457 kts | 357° |
| 2026-05-08 18:40 | 46.33710 | 11.06059 | 34157 ft | 457 kts | 357° |
| 2026-05-08 18:41 | 46.40080 | 11.06369 | 34157 ft | 458 kts | 358° |
| 2026-05-08 18:41 | 46.43264 | 11.06845 | 34044 ft | 462 kts | 6° |
| 2026-05-08 18:41 | 46.46424 | 11.07718 | 34046 ft | 463 kts | 6° |
| 2026-05-08 18:42 | 46.52719 | 11.09471 | 34034 ft | 464 kts | 6° |
| 2026-05-08 18:42 | 46.59064 | 11.11227 | 34034 ft | 464 kts | 6° |
| 2026-05-08 18:43 | 46.65417 | 11.12974 | 34047 ft | 466 kts | 7° |
| 2026-05-08 18:43 | 46.71782 | 11.14739 | 34014 ft | 465 kts | 7° |
| 2026-05-08 18:44 | 46.78161 | 11.16515 | 34009 ft | 466 kts | 7° |
| 2026-05-08 18:44 | 46.84537 | 11.18290 | 34026 ft | 467 kts | 7° |
| 2026-05-08 18:45 | 46.90944 | 11.20074 | 34018 ft | 469 kts | 7° |
| 2026-05-08 18:45 | 46.97375 | 11.21258 | 34010 ft | 464 kts | 358° |
| 2026-05-08 18:46 | 47.00605 | 11.21480 | 33794 ft | 466 kts | 359° |
| 2026-05-08 18:46 | 47.03847 | 11.21700 | 33521 ft | 466 kts | 359° |
| 2026-05-08 18:46 | 47.07091 | 11.21918 | 33230 ft | 469 kts | 359° |
| 2026-05-08 18:46 | 47.10366 | 11.22134 | 32172 ft | 474 kts | 359° |
| 2026-05-08 18:47 | 47.13675 | 11.22348 | 31137 ft | 477 kts | 359° |
| 2026-05-08 18:47 | 47.16997 | 11.22562 | 30137 ft | 480 kts | 359° |
| 2026-05-08 18:47 | 47.20361 | 11.22784 | 28856 ft | 486 kts | 360° |
| 2026-05-08 18:47 | 47.23735 | 11.23013 | 27703 ft | 486 kts | 0° |
| 2026-05-08 18:48 | 47.27115 | 11.23248 | 26486 ft | 486 kts | 0° |
| 2026-05-08 18:48 | 47.30503 | 11.23483 | 25189 ft | 488 kts | 1° |
| 2026-05-08 18:48 | 47.33896 | 11.23716 | 23949 ft | 487 kts | 1° |
| 2026-05-08 18:48 | 47.37265 | 11.23948 | 22935 ft | 481 kts | 1° |
| 2026-05-08 18:49 | 47.40576 | 11.24177 | 21919 ft | 475 kts | 1° |
| 2026-05-08 18:49 | 47.43843 | 11.24401 | 21093 ft | 467 kts | 1° |
| 2026-05-08 18:49 | 47.47082 | 11.24621 | 20213 ft | 462 kts | 1° |
| 2026-05-08 18:49 | 47.50267 | 11.24836 | 19392 ft | 456 kts | 1° |
| 2026-05-08 18:50 | 47.53431 | 11.25049 | 18588 ft | 452 kts | 1° |
| 2026-05-08 18:50 | 47.56523 | 11.25225 | 17786 ft | 447 kts | 0° |
| 2026-05-08 18:50 | 47.59647 | 11.25285 | 16985 ft | 442 kts | 359° |
| 2026-05-08 18:50 | 47.62711 | 11.25254 | 16236 ft | 436 kts | 358° |
| 2026-05-08 18:51 | 47.65731 | 11.25185 | 15527 ft | 432 kts | 358° |
| 2026-05-08 18:51 | 47.68719 | 11.25118 | 14841 ft | 427 kts | 358° |
| 2026-05-08 18:51 | 47.71678 | 11.25138 | 14161 ft | 424 kts | 3° |
| 2026-05-08 18:51 | 47.74558 | 11.25928 | 13453 ft | 421 kts | 16° |
| 2026-05-08 18:52 | 47.77304 | 11.27243 | 12729 ft | 418 kts | 17° |
| 2026-05-08 18:52 | 47.80042 | 11.28624 | 11996 ft | 414 kts | 18° |
| 2026-05-08 18:52 | 47.82738 | 11.30057 | 11317 ft | 409 kts | 19° |
| 2026-05-08 18:52 | 47.85395 | 11.31525 | 10640 ft | 405 kts | 19° |
| 2026-05-08 18:53 | 47.88054 | 11.32976 | 9954 ft | 399 kts | 15° |
| 2026-05-08 18:53 | 47.90727 | 11.33608 | 9234 ft | 391 kts | 2° |
| 2026-05-08 18:53 | 47.93422 | 11.33588 | 8515 ft | 385 kts | 355° |
| 2026-05-08 18:53 | 47.96063 | 11.33292 | 8168 ft | 370 kts | 354° |
| 2026-05-08 18:54 | 47.98548 | 11.32991 | 8129 ft | 348 kts | 354° |
| 2026-05-08 18:54 | 48.00896 | 11.32713 | 8123 ft | 327 kts | 354° |
| 2026-05-08 18:54 | 48.03099 | 11.32459 | 8120 ft | 309 kts | 354° |
| 2026-05-08 18:54 | 48.05182 | 11.32217 | 8118 ft | 292 kts | 354° |
| 2026-05-08 18:55 | 48.08997 | 11.31774 | 8112 ft | 258 kts | 354° |
| 2026-05-08 18:55 | 48.10740 | 11.31592 | 8110 ft | 246 kts | 354° |
| 2026-05-08 18:55 | 48.12453 | 11.31432 | 7890 ft | 249 kts | 354° |
| 2026-05-08 18:56 | 48.14196 | 11.31255 | 7400 ft | 254 kts | 354° |
| 2026-05-08 18:56 | 48.15983 | 11.31049 | 6913 ft | 260 kts | 354° |
| 2026-05-08 18:56 | 48.17786 | 11.30816 | 6578 ft | 259 kts | 354° |
| 2026-05-08 18:56 | 48.19565 | 11.30565 | 6187 ft | 254 kts | 355° |
| 2026-05-08 18:57 | 48.21323 | 11.30293 | 5611 ft | 253 kts | 355° |
| 2026-05-08 18:57 | 48.22501 | 11.30096 | 5256 ft | 251 kts | 354° |
| 2026-05-08 18:57 | 48.24783 | 11.29688 | 4566 ft | 247 kts | 354° |
| 2026-05-08 18:57 | 48.26480 | 11.29555 | 4088 ft | 240 kts | 8° |
| 2026-05-08 18:58 | 48.27979 | 11.30267 | 3984 ft | 214 kts | 38° |
| 2026-05-08 18:58 | 48.28980 | 11.31788 | 4021 ft | 196 kts | 52° |
| 2026-05-08 18:58 | 48.29773 | 11.33328 | 4003 ft | 178 kts | 54° |
| 2026-05-08 18:58 | 48.30480 | 11.34745 | 3994 ft | 161 kts | 54° |
| 2026-05-08 18:59 | 48.30891 | 11.36192 | 3985 ft | 147 kts | 86° |
| 2026-05-08 18:59 | 48.31023 | 11.37712 | 3996 ft | 145 kts | 80° |
| 2026-05-08 18:59 | 48.31184 | 11.39211 | 3992 ft | 148 kts | 82° |
| 2026-05-08 18:59 | 48.31341 | 11.40898 | 4011 ft | 176 kts | 82° |
| 2026-05-08 19:00 | 48.31450 | 11.42153 | 4016 ft | 181 kts | 83° |
| 2026-05-08 19:00 | 48.31657 | 11.44660 | 4013 ft | 183 kts | 83° |
| 2026-05-08 19:00 | 48.31811 | 11.46562 | 4011 ft | 183 kts | 83° |
| 2026-05-08 19:00 | 48.31964 | 11.48468 | 4008 ft | 183 kts | 83° |
| 2026-05-08 19:01 | 48.32114 | 11.50352 | 4010 ft | 184 kts | 83° |
| 2026-05-08 19:01 | 48.32267 | 11.52259 | 4009 ft | 184 kts | 83° |
| 2026-05-08 19:01 | 48.32418 | 11.54161 | 4003 ft | 184 kts | 83° |
| 2026-05-08 19:01 | 48.32571 | 11.56076 | 3934 ft | 184 kts | 83° |
| 2026-05-08 19:02 | 48.32722 | 11.57981 | 3740 ft | 183 kts | 83° |
| 2026-05-08 19:02 | 48.32871 | 11.59872 | 3514 ft | 182 kts | 83° |
| 2026-05-08 19:02 | 48.33019 | 11.61741 | 3291 ft | 179 kts | 82° |
| 2026-05-08 19:02 | 48.33113 | 11.62934 | 3127 ft | 167 kts | 82° |
| 2026-05-08 19:03 | 48.33285 | 11.65125 | 2845 ft | 152 kts | 82° |
| 2026-05-08 19:03 | 48.33367 | 11.66165 | 2711 ft | 150 kts | 82° |
| 2026-05-08 19:03 | 48.33489 | 11.67714 | 2513 ft | 149 kts | 82° |
| 2026-05-08 19:03 | 48.33609 | 11.69249 | 2306 ft | 147 kts | 82° |
| 2026-05-08 19:04 | 48.33726 | 11.70750 | 2113 ft | 143 kts | 82° |
| 2026-05-08 19:04 | 48.33841 | 11.72235 | 1905 ft | 143 kts | 81° |
| 2026-05-08 19:04 | 48.33958 | 11.73725 | 1662 ft | 140 kts | 81° |
| 2026-05-08 19:04 | 48.34078 | 11.75195 | 1523 ft | 142 kts | 82° |
| 2026-05-08 19:05 | 48.34195 | 11.76529 | 1477 ft | 111 kts | 81° |
| 2026-05-08 19:05 | 48.34244 | 11.77194 | 1485 ft | 51 kts | 85° |
| 2026-05-08 19:05 | 48.34271 | 11.77416 | 1478 ft | 1 kts | 60° |
| 2026-05-08 19:05 | 48.34273 | 11.77423 | 1480 ft | 4 kts | 60° |
| 2026-05-08 19:06 | 48.34299 | 11.77489 | 1485 ft | 10 kts | 59° |
| 2026-05-08 19:06 | 48.34346 | 11.77595 | 1481 ft | 15 kts | 50° |
| 2026-05-08 19:06 | 48.34389 | 11.77673 | 1481 ft | 2 kts | 50° |
| 2026-05-08 19:06 | 48.34410 | 11.77713 | 1480 ft | 8 kts | 51° |
| 2026-05-08 19:07 | 48.34455 | 11.77798 | 1479 ft | 13 kts | 52° |
| 2026-05-08 19:07 | 48.34491 | 11.77880 | 1478 ft | 9 kts | 58° |
| 2026-05-08 19:07 | 48.34554 | 11.77923 | 1479 ft | 13 kts | 4° |
| 2026-05-08 19:07 | 48.34618 | 11.77915 | 1476 ft | 1 kts | 351° |
| 2026-05-08 19:08 | 48.34648 | 11.77909 | 1483 ft | 9 kts | 351° |
| 2026-05-08 19:08 | 48.34717 | 11.77893 | 1474 ft | 12 kts | 351° |
| 2026-05-08 19:08 | 48.34827 | 11.77871 | 1480 ft | 20 kts | 353° |
| 2026-05-08 19:08 | 48.34940 | 11.77852 | 1482 ft | 15 kts | 353° |
| 2026-05-08 19:09 | 48.35033 | 11.77835 | 1478 ft | 13 kts | 352° |
| 2026-05-08 19:09 | 48.35116 | 11.77820 | 1485 ft | 12 kts | 353° |
| 2026-05-08 19:09 | 48.35189 | 11.77875 | 1485 ft | 13 kts | 61° |
| 2026-05-08 19:09 | 48.35195 | 11.78020 | 1485 ft | 13 kts | 87° |
| 2026-05-08 19:10 | 48.35181 | 11.78158 | 1479 ft | 13 kts | 133° |
| 2026-05-08 19:10 | 48.35132 | 11.78172 | 1476 ft | 5 kts | 177° |
| 2026-05-08 19:10 | 48.35091 | 11.78178 | 1485 ft | 9 kts | 174° |
| 2026-05-08 19:10 | 48.35049 | 11.78235 | 1485 ft | 11 kts | 95° |
| 2026-05-08 19:11 | 48.35057 | 11.78353 | 1480 ft | 12 kts | 82° |
| 2026-05-08 19:11 | 48.35059 | 11.78376 | 1480 ft | 0 kts | 83° |